Time;durP1;ratioP1;P1;durP2;ratioP2;P2;SDS_P1;SDS_P2;PMS_P1;PMS_P2;Temp;Humidity;BMP_temperature;BMP_pressure;BME280_temperature;BME280_humidity;BME280_pressure;Samples;Min_cycle;Max_cycle;Signal;HPM_P1;HPM_P2
2022/01/13 00:02:27;;;;;;;84.30;35.07;;;1.30;99.90;;;;;;5038278;28;20215;-71
2022/01/13 00:05:18;;;;;;;90.60;35.60;;;1.30;99.90;;;;;;5042994;28;20593;-70
2022/01/13 00:08:06;;;;;;;87.23;35.17;;;1.40;99.90;;;;;;5056042;28;20217;-71
2022/01/13 00:10:56;;;;;;;88.10;36.30;;;1.40;99.90;;;;;;5057824;28;20268;-70
2022/01/13 00:13:49;;;;;;;82.60;34.47;;;1.30;99.90;;;;;;5056120;28;20239;-71
2022/01/13 00:16:41;;;;;;;84.97;34.17;;;1.30;99.90;;;;;;5055707;28;20240;-72
2022/01/13 00:19:35;;;;;;;84.67;32.93;;;1.30;99.90;;;;;;5043235;28;20244;-71
2022/01/13 00:22:42;;;;;;;86.97;32.57;;;1.20;99.90;;;;;;5056324;28;20226;-71
2022/01/13 00:25:33;;;;;;;92.10;34.50;;;1.20;99.90;;;;;;5048318;28;20213;-71
2022/01/13 00:28:24;;;;;;;86.17;34.23;;;1.20;99.90;;;;;;5043798;28;20277;-72
2022/01/13 00:31:12;;;;;;;93.00;33.97;;;1.30;99.90;;;;;;5054353;28;20220;-72
2022/01/13 00:34:04;;;;;;;86.63;34.97;;;1.30;99.90;;;;;;5053901;28;20642;-70
2022/01/13 00:36:53;;;;;;;92.87;38.43;;;1.30;99.90;;;;;;5042351;28;20215;-71
2022/01/13 00:39:42;;;;;;;89.23;33.43;;;1.30;99.90;;;;;;5049976;28;20232;-73
2022/01/13 00:42:31;;;;;;;83.17;31.70;;;1.20;99.90;;;;;;5042162;28;20223;-73
2022/01/13 00:45:21;;;;;;;82.87;32.03;;;1.20;99.90;;;;;;5039729;28;20270;-71
2022/01/13 00:48:10;;;;;;;78.03;31.73;;;1.20;99.90;;;;;;5055226;28;20228;-74
2022/01/13 00:51:00;;;;;;;74.43;30.93;;;1.30;99.90;;;;;;5058355;28;20239;-72
2022/01/13 00:53:49;;;;;;;75.20;30.00;;;1.20;99.90;;;;;;5055820;28;20209;-73
2022/01/13 00:56:38;;;;;;;74.47;29.97;;;1.30;99.90;;;;;;5056164;28;20224;-72
2022/01/13 00:59:26;;;;;;;76.60;32.57;;;1.30;99.90;;;;;;5036753;28;20224;-73
2022/01/13 01:02:16;;;;;;;75.57;29.73;;;1.30;99.90;;;;;;5050372;28;20234;-72
2022/01/13 01:05:06;;;;;;;69.43;29.63;;;1.30;99.90;;;;;;5057520;28;20259;-73
2022/01/13 01:07:54;;;;;;;61.40;26.37;;;1.30;99.90;;;;;;5038898;28;20228;-70
2022/01/13 01:10:45;;;;;;;68.23;28.20;;;1.30;99.90;;;;;;5052974;28;20228;-71
2022/01/13 01:13:37;;;;;;;66.03;25.67;;;1.30;99.90;;;;;;5055287;28;20228;-69
2022/01/13 01:16:26;;;;;;;60.03;27.03;;;1.30;99.90;;;;;;5059165;28;20223;-71
2022/01/13 01:19:27;;;;;;;64.20;27.93;;;1.40;99.90;;;;;;5057189;28;20235;-72
2022/01/13 01:25:41;;;;;;;62.43;27.53;;;1.40;99.90;;;;;;5052819;28;20227;-70
2022/01/13 01:28:40;;;;;;;60.27;26.30;;;1.40;99.90;;;;;;5040501;28;20220;-71
2022/01/13 01:31:32;;;;;;;72.80;29.03;;;1.40;99.90;;;;;;5043345;28;20219;-71
2022/01/13 01:34:37;;;;;;;60.60;26.63;;;1.40;99.90;;;;;;5056324;28;20227;-71
2022/01/13 01:37:29;;;;;;;62.60;26.80;;;1.40;99.90;;;;;;5037514;28;20243;-72
2022/01/13 01:40:19;;;;;;;70.23;27.20;;;1.40;99.90;;;;;;5054197;28;20225;-70
2022/01/13 01:43:08;;;;;;;63.30;22.67;;;1.40;99.90;;;;;;5055743;28;20244;-70
2022/01/13 01:45:57;;;;;;;58.00;23.53;;;1.30;99.90;;;;;;5041436;28;20265;-69
2022/01/13 01:48:45;;;;;;;57.70;23.80;;;1.30;99.90;;;;;;5057496;28;20306;-70
2022/01/13 01:51:35;;;;;;;62.77;24.93;;;1.30;99.90;;;;;;5039225;28;20224;-72
2022/01/13 01:54:25;;;;;;;57.43;24.10;;;1.30;99.90;;;;;;5039117;28;20705;-72
2022/01/13 01:57:14;;;;;;;57.77;23.43;;;1.40;99.90;;;;;;5045488;28;20232;-71
2022/01/13 02:00:04;;;;;;;58.30;25.27;;;1.30;99.90;;;;;;5034783;28;20229;-71
2022/01/13 02:03:01;;;;;;;62.03;24.73;;;1.30;99.90;;;;;;5051509;28;20600;-71
2022/01/13 02:05:50;;;;;;;58.43;23.83;;;1.40;99.90;;;;;;5040055;28;20303;-70
2022/01/13 02:08:40;;;;;;;56.37;23.23;;;1.30;99.90;;;;;;5040084;28;20227;-71
2022/01/13 02:11:30;;;;;;;66.60;26.63;;;1.30;99.90;;;;;;5033665;28;20216;-71
2022/01/13 02:14:33;;;;;;;70.63;27.17;;;1.20;99.90;;;;;;5052093;28;21618;-71
2022/01/13 02:17:25;;;;;;;62.20;24.13;;;1.30;99.90;;;;;;5041877;28;20263;-71
2022/01/13 02:20:19;;;;;;;70.07;26.53;;;1.30;99.90;;;;;;5037576;28;20224;-71
2022/01/13 02:23:08;;;;;;;64.30;24.87;;;1.40;99.90;;;;;;5040241;28;20720;-71
2022/01/13 02:25:57;;;;;;;60.97;25.20;;;1.40;99.90;;;;;;5053036;28;20240;-70
2022/01/13 02:28:45;;;;;;;67.77;27.47;;;1.40;99.90;;;;;;5055478;28;20223;-72
2022/01/13 02:31:34;;;;;;;66.50;25.33;;;1.40;99.90;;;;;;5055971;28;20224;-69
2022/01/13 02:34:23;;;;;;;65.10;25.57;;;1.40;99.90;;;;;;5042697;28;20235;-71
2022/01/13 02:37:13;;;;;;;70.87;26.07;;;1.40;99.90;;;;;;5055264;28;20788;-71
2022/01/13 02:40:02;;;;;;;71.60;26.30;;;1.30;99.90;;;;;;5041902;28;20235;-70
2022/01/13 02:42:51;;;;;;;70.27;26.30;;;1.40;99.90;;;;;;5043136;28;20914;-71
2022/01/13 02:45:52;;;;;;;67.83;26.63;;;1.40;99.90;;;;;;5041246;28;20247;-71
2022/01/13 02:48:40;;;;;;;75.33;26.63;;;1.40;99.90;;;;;;5058878;28;20221;-73
2022/01/13 02:51:29;;;;;;;65.30;23.20;;;1.50;99.90;;;;;;5054395;28;20217;-70
2022/01/13 02:54:19;;;;;;;73.40;26.00;;;1.40;99.90;;;;;;5048033;28;20228;-70
2022/01/13 02:57:07;;;;;;;61.97;23.90;;;1.40;99.90;;;;;;5062955;28;20216;-70
2022/01/13 02:59:56;;;;;;;69.13;24.00;;;1.40;99.90;;;;;;5041217;28;20220;-71
2022/01/13 03:02:47;;;;;;;66.90;23.70;;;1.40;99.90;;;;;;5044468;28;20247;-71
2022/01/13 03:05:38;;;;;;;62.83;24.63;;;1.40;99.90;;;;;;5054907;28;20240;-69
2022/01/13 03:08:27;;;;;;;64.60;23.50;;;1.40;99.90;;;;;;5044146;28;20216;-69
2022/01/13 03:11:18;;;;;;;72.03;25.13;;;1.30;99.90;;;;;;5056435;28;20609;-69
2022/01/13 03:14:10;;;;;;;68.63;24.70;;;1.40;99.90;;;;;;5038912;28;20638;-70
2022/01/13 03:16:59;;;;;;;65.40;24.33;;;1.40;99.90;;;;;;5051020;28;20228;-70
2022/01/13 03:19:47;;;;;;;61.27;22.90;;;1.40;99.90;;;;;;5054723;28;20282;-74
2022/01/13 03:22:37;;;;;;;63.00;20.43;;;1.30;99.90;;;;;;5037574;28;20231;-71
2022/01/13 03:25:25;;;;;;;60.30;22.03;;;1.30;99.90;;;;;;5045968;28;20224;-71
2022/01/13 03:28:18;;;;;;;65.23;22.60;;;1.30;99.90;;;;;;5038387;28;20962;-72
2022/01/13 03:31:08;;;;;;;51.37;20.83;;;1.40;99.90;;;;;;5039628;28;20223;-71
2022/01/13 03:33:57;;;;;;;55.43;20.57;;;1.40;99.90;;;;;;5050036;28;20217;-72
2022/01/13 03:36:46;;;;;;;64.10;23.17;;;1.50;99.90;;;;;;5049445;28;20232;-72
2022/01/13 03:39:35;;;;;;;56.37;21.10;;;1.50;99.90;;;;;;5053204;28;20600;-71
2022/01/13 03:42:23;;;;;;;54.20;21.53;;;1.50;99.90;;;;;;5055619;28;20221;-71
2022/01/13 03:45:14;;;;;;;59.93;22.53;;;1.60;99.90;;;;;;5056558;28;20220;-72
2022/01/13 03:48:03;;;;;;;52.17;20.67;;;1.50;99.90;;;;;;5040632;28;20231;-70
2022/01/13 03:50:52;;;;;;;53.87;20.93;;;1.50;99.90;;;;;;5054290;28;20270;-70
2022/01/13 03:54:45;;;;;;;52.77;20.53;;;1.50;99.90;;;;;;5053315;28;20227;-70
2022/01/13 03:58:18;;;;;;;46.40;18.27;;;1.60;99.90;;;;;;5038976;28;20220;-70
2022/01/13 04:01:43;;;;;;;50.70;17.63;;;1.60;99.90;;;;;;5060818;28;20223;-70
2022/01/13 04:04:35;;;;;;;50.70;17.73;;;1.60;99.90;;;;;;5057862;28;20216;-70
2022/01/13 04:07:26;;;;;;;48.90;17.87;;;1.60;99.90;;;;;;5054071;28;20220;-70
2022/01/13 04:10:44;;;;;;;46.30;17.80;;;1.60;99.90;;;;;;5044469;28;20232;-69
2022/01/13 04:13:46;;;;;;;51.90;19.87;;;1.70;99.90;;;;;;5049172;28;20222;-70
2022/01/13 04:16:37;;;;;;;48.20;20.10;;;1.70;99.90;;;;;;5043066;28;20216;-71
2022/01/13 04:19:26;;;;;;;46.43;17.93;;;1.70;99.90;;;;;;5056830;28;20220;-70
2022/01/13 04:22:16;;;;;;;53.40;19.80;;;1.60;99.90;;;;;;5039088;28;20231;-69
2022/01/13 04:25:06;;;;;;;50.63;19.20;;;1.70;99.90;;;;;;5038469;28;20236;-71
2022/01/13 04:28:01;;;;;;;52.83;18.70;;;1.60;99.90;;;;;;5043416;28;20221;-71
2022/01/13 04:30:52;;;;;;;46.23;17.60;;;1.70;99.90;;;;;;5054780;28;20791;-71
2022/01/13 04:33:42;;;;;;;51.37;19.23;;;1.70;99.90;;;;;;5034108;28;20359;-71
2022/01/13 04:36:31;;;;;;;45.57;17.63;;;1.70;99.90;;;;;;5043285;28;20217;-71
2022/01/13 04:39:20;;;;;;;52.27;17.73;;;1.70;99.90;;;;;;5035725;28;20239;-72
2022/01/13 04:42:10;;;;;;;46.93;19.20;;;1.70;99.90;;;;;;5052411;28;20231;-72
2022/01/13 04:44:59;;;;;;;43.57;18.90;;;1.70;99.90;;;;;;5037288;28;20224;-72
2022/01/13 04:47:48;;;;;;;50.40;18.90;;;1.70;99.90;;;;;;5035743;28;20216;-72
2022/01/13 04:50:38;;;;;;;50.07;18.83;;;1.80;99.90;;;;;;5041186;28;20209;-71
2022/01/13 04:53:27;;;;;;;51.30;20.03;;;1.70;99.90;;;;;;5052077;28;20243;-72
2022/01/13 04:56:27;;;;;;;54.63;21.57;;;1.70;99.90;;;;;;5054516;28;20317;-71
2022/01/13 04:59:16;;;;;;;46.90;18.47;;;1.80;99.90;;;;;;5041429;28;20974;-71
2022/01/13 05:02:05;;;;;;;41.90;18.87;;;1.80;99.90;;;;;;5049354;28;20312;-71
2022/01/13 05:04:53;;;;;;;42.90;16.90;;;1.80;99.90;;;;;;5053593;28;20858;-71
2022/01/13 05:07:43;;;;;;;44.83;19.10;;;1.80;99.90;;;;;;5050928;28;20302;-72
2022/01/13 05:10:32;;;;;;;42.93;17.03;;;1.70;99.90;;;;;;5054265;28;20217;-70
2022/01/13 05:13:21;;;;;;;43.80;18.13;;;1.80;99.90;;;;;;5031056;28;20251;-70
2022/01/13 05:16:18;;;;;;;37.80;16.13;;;1.70;99.90;;;;;;5039468;28;20224;-69
2022/01/13 05:19:15;;;;;;;40.27;17.00;;;1.70;99.90;;;;;;5040520;28;20231;-68
2022/01/13 05:22:19;;;;;;;37.07;16.30;;;1.80;99.90;;;;;;5051080;28;20594;-69
2022/01/13 05:25:10;;;;;;;35.17;15.10;;;1.70;99.90;;;;;;5051336;28;20786;-69
2022/01/13 05:28:02;;;;;;;33.17;15.57;;;1.60;99.90;;;;;;5052042;28;20227;-70
2022/01/13 05:30:51;;;;;;;26.43;11.00;;;1.70;99.90;;;;;;5039307;28;20228;-70
2022/01/13 05:33:40;;;;;;;29.37;13.10;;;1.70;99.90;;;;;;5057466;28;20669;-70
2022/01/13 05:36:29;;;;;;;31.43;13.33;;;1.70;99.90;;;;;;5053833;28;20329;-71
2022/01/13 05:39:17;;;;;;;25.47;12.17;;;1.70;99.90;;;;;;5055074;28;20224;-72
2022/01/13 05:42:07;;;;;;;26.57;12.63;;;1.70;99.90;;;;;;5052242;28;20217;-71
2022/01/13 05:44:59;;;;;;;30.30;13.53;;;1.80;99.90;;;;;;5054510;28;20316;-68
2022/01/13 05:47:49;;;;;;;24.93;12.30;;;1.70;99.90;;;;;;5038292;28;20232;-71
2022/01/13 05:50:38;;;;;;;31.00;13.30;;;1.70;99.90;;;;;;5054973;28;20217;-71
2022/01/13 05:53:26;;;;;;;27.53;13.23;;;1.80;99.90;;;;;;5053990;28;20221;-70
2022/01/13 05:56:15;;;;;;;28.57;12.53;;;1.70;99.90;;;;;;5050842;28;20227;-69
2022/01/13 05:59:06;;;;;;;28.97;13.53;;;1.70;99.90;;;;;;5049775;28;20224;-69
2022/01/13 06:01:54;;;;;;;31.10;13.50;;;1.80;99.90;;;;;;5032047;28;20235;-70
2022/01/13 06:04:43;;;;;;;30.13;13.90;;;1.80;99.90;;;;;;5055202;28;20319;-69
2022/01/13 06:07:32;;;;;;;32.17;14.60;;;1.90;99.90;;;;;;5037663;28;20216;-69
2022/01/13 06:10:21;;;;;;;32.00;13.40;;;1.80;99.90;;;;;;5038381;28;20227;-70
2022/01/13 06:13:10;;;;;;;32.10;13.13;;;1.70;99.90;;;;;;5054035;28;20243;-70
2022/01/13 06:16:00;;;;;;;30.80;13.63;;;1.80;99.90;;;;;;5041211;28;20224;-70
2022/01/13 06:18:48;;;;;;;30.30;14.13;;;1.90;99.90;;;;;;5051382;28;20225;-70
2022/01/13 06:21:37;;;;;;;30.70;13.73;;;1.80;99.90;;;;;;5052100;28;20220;-71
2022/01/13 06:24:25;;;;;;;29.93;13.53;;;1.80;99.90;;;;;;5049941;28;20220;-70
2022/01/13 06:27:14;;;;;;;31.23;14.03;;;1.80;99.90;;;;;;5052472;28;20223;-71
2022/01/13 06:30:04;;;;;;;29.80;14.50;;;1.90;99.90;;;;;;5036667;28;20354;-72
2022/01/13 06:32:54;;;;;;;28.30;13.97;;;1.90;99.90;;;;;;5053087;28;20232;-71
2022/01/13 06:35:43;;;;;;;28.43;14.07;;;1.90;99.90;;;;;;5051475;28;20225;-71
2022/01/13 06:38:32;;;;;;;32.03;14.50;;;1.90;99.90;;;;;;5035327;28;20608;-70
2022/01/13 06:41:20;;;;;;;31.03;15.50;;;1.90;99.90;;;;;;5051655;28;20827;-70
2022/01/13 06:44:09;;;;;;;32.80;15.00;;;1.90;99.90;;;;;;5053281;28;20217;-70
2022/01/13 06:46:58;;;;;;;31.60;15.47;;;2.00;99.90;;;;;;5041704;28;20220;-66
2022/01/13 06:49:48;;;;;;;32.60;16.53;;;2.10;99.90;;;;;;5045011;28;20788;-70
2022/01/13 06:52:37;;;;;;;29.57;15.70;;;2.10;99.90;;;;;;5044152;28;20223;-68
2022/01/13 06:55:26;;;;;;;31.27;13.90;;;2.10;99.90;;;;;;5038569;28;20231;-70
2022/01/13 06:58:15;;;;;;;30.30;15.53;;;2.10;99.90;;;;;;5054990;28;20740;-69
2022/01/13 07:01:03;;;;;;;23.97;13.93;;;2.10;99.90;;;;;;5053724;28;20221;-68
2022/01/13 07:03:58;;;;;;;30.63;14.70;;;2.10;99.90;;;;;;5050588;28;20220;-68
2022/01/13 07:06:50;;;;;;;27.87;14.43;;;2.10;99.90;;;;;;5046189;28;20216;-68
2022/01/13 07:09:39;;;;;;;26.13;13.67;;;2.10;99.90;;;;;;5056010;28;20232;-68
2022/01/13 07:12:28;;;;;;;24.23;13.47;;;2.10;99.90;;;;;;5042041;28;20215;-70
2022/01/13 07:15:17;;;;;;;27.70;13.67;;;2.10;99.90;;;;;;5045798;28;20221;-69
2022/01/13 07:18:05;;;;;;;27.40;13.80;;;2.10;99.90;;;;;;5055186;28;20228;-69
2022/01/13 07:20:54;;;;;;;26.67;13.67;;;2.20;99.90;;;;;;5047069;28;20231;-69
2022/01/13 07:23:44;;;;;;;26.70;13.40;;;2.20;99.90;;;;;;5043604;28;20720;-69
2022/01/13 07:26:33;;;;;;;25.53;13.67;;;2.30;99.90;;;;;;5043754;28;20350;-70
2022/01/13 07:29:22;;;;;;;26.07;13.97;;;2.20;99.90;;;;;;5041937;28;20225;-69
2022/01/13 07:32:11;;;;;;;26.03;14.40;;;2.30;99.90;;;;;;5058148;28;20224;-69
2022/01/13 07:35:00;;;;;;;28.77;15.33;;;2.30;99.90;;;;;;5057701;28;20712;-72
2022/01/13 07:37:49;;;;;;;29.67;14.37;;;2.20;99.90;;;;;;5052360;28;20216;-71
2022/01/13 07:40:39;;;;;;;29.27;15.87;;;2.20;99.90;;;;;;5044689;28;20224;-69
2022/01/13 07:43:28;;;;;;;31.30;15.43;;;2.20;99.90;;;;;;5054683;28;20224;-70
2022/01/13 07:46:16;;;;;;;29.07;15.53;;;2.30;99.90;;;;;;5046190;28;20248;-70
2022/01/13 07:49:05;;;;;;;33.97;15.87;;;2.30;99.90;;;;;;5055766;28;20303;-69
2022/01/13 07:51:54;;;;;;;28.33;15.57;;;2.30;99.90;;;;;;5059728;28;20573;-70
2022/01/13 07:54:42;;;;;;;34.33;17.03;;;2.30;99.90;;;;;;5055064;28;20231;-71
2022/01/13 07:57:35;;;;;;;32.57;15.27;;;2.30;99.90;;;;;;5035422;28;20224;-71
2022/01/13 08:00:27;;;;;;;34.83;17.60;;;2.30;99.90;;;;;;5055254;28;20224;-69
2022/01/13 08:03:15;;;;;;;32.70;16.47;;;2.30;99.90;;;;;;5055601;28;20228;-69
2022/01/13 08:06:05;;;;;;;38.13;17.00;;;2.30;99.90;;;;;;5055565;28;20231;-69
2022/01/13 08:08:53;;;;;;;33.07;16.53;;;2.40;99.90;;;;;;5054151;28;20374;-70
2022/01/13 08:11:42;;;;;;;37.20;17.80;;;2.40;99.90;;;;;;5055636;28;20216;-68
2022/01/13 08:14:32;;;;;;;38.53;17.63;;;2.50;99.90;;;;;;5055521;28;20704;-69
2022/01/13 08:20:25;;;;;;;35.70;17.30;;;2.40;99.90;;;;;;5022919;28;20216;-69
2022/01/13 08:23:14;;;;;;;39.80;18.37;;;2.40;99.90;;;;;;5052914;28;20582;-70
2022/01/13 08:26:02;;;;;;;36.83;18.10;;;2.40;99.90;;;;;;5043748;28;20224;-71
2022/01/13 08:28:51;;;;;;;40.10;19.83;;;2.50;99.90;;;;;;5055678;28;20216;-69
2022/01/13 08:31:41;;;;;;;36.70;18.77;;;2.50;99.90;;;;;;5042508;28;20228;-69
2022/01/13 08:34:30;;;;;;;38.33;18.17;;;2.60;99.90;;;;;;5055609;28;20316;-68
2022/01/13 08:37:18;;;;;;;34.63;18.27;;;2.50;99.90;;;;;;5055292;28;20585;-68
2022/01/13 08:40:10;;;;;;;39.33;18.60;;;2.60;99.90;;;;;;5047067;28;20212;-68
2022/01/13 08:42:58;;;;;;;38.73;18.23;;;2.60;99.90;;;;;;5046065;28;20775;-69
2022/01/13 08:45:47;;;;;;;37.73;19.37;;;2.70;99.90;;;;;;5054835;28;20212;-69
2022/01/13 08:48:37;;;;;;;38.77;18.97;;;2.60;99.90;;;;;;5042095;28;20641;-69
2022/01/13 08:51:26;;;;;;;42.70;20.13;;;2.60;99.90;;;;;;5041969;28;20216;-70
2022/01/13 08:54:14;;;;;;;39.40;19.37;;;2.60;99.90;;;;;;5047516;28;20224;-70
2022/01/13 08:57:06;;;;;;;40.50;20.20;;;2.60;99.90;;;;;;5048467;28;20235;-70
2022/01/13 08:59:54;;;;;;;40.33;19.33;;;2.60;99.90;;;;;;5056256;28;20224;-69
2022/01/13 09:02:44;;;;;;;37.77;18.60;;;2.60;99.90;;;;;;5053300;28;20228;-70
2022/01/13 09:05:35;;;;;;;40.73;18.77;;;2.60;99.90;;;;;;5053075;28;20244;-68
2022/01/13 09:08:24;;;;;;;44.97;20.00;;;2.70;99.90;;;;;;5054164;28;20227;-69
2022/01/13 09:11:13;;;;;;;39.50;17.80;;;2.60;99.90;;;;;;5055814;28;20219;-68
2022/01/13 09:14:01;;;;;;;42.90;20.07;;;2.60;99.90;;;;;;5058306;28;20899;-69
2022/01/13 09:16:50;;;;;;;42.90;20.10;;;2.70;99.90;;;;;;5035303;28;20981;-68
2022/01/13 09:19:41;;;;;;;37.07;19.27;;;2.70;99.90;;;;;;5054343;28;21748;-66
2022/01/13 09:22:31;;;;;;;39.83;19.73;;;2.70;99.90;;;;;;5055115;28;20228;-68
2022/01/13 09:25:19;;;;;;;39.17;19.00;;;2.80;99.90;;;;;;5040492;28;20220;-69
2022/01/13 09:28:09;;;;;;;42.37;19.97;;;2.80;99.90;;;;;;5044308;28;20220;-68
2022/01/13 09:30:57;;;;;;;42.33;20.33;;;2.80;99.90;;;;;;5038547;28;20960;-68
2022/01/13 09:33:46;;;;;;;41.33;20.00;;;2.90;99.90;;;;;;5046080;28;20310;-69
2022/01/13 09:36:35;;;;;;;42.40;19.63;;;2.80;99.90;;;;;;5056171;28;20837;-68
2022/01/13 09:39:25;;;;;;;44.13;18.93;;;2.90;99.90;;;;;;5054327;28;20735;-68
2022/01/13 09:42:14;;;;;;;44.13;20.60;;;2.80;99.90;;;;;;5056349;28;20353;-67
2022/01/13 09:45:09;;;;;;;49.10;21.07;;;2.90;99.90;;;;;;5051295;28;20220;-69
2022/01/13 09:47:59;;;;;;;45.90;19.93;;;2.90;99.90;;;;;;5053728;28;20785;-66
2022/01/13 09:50:48;;;;;;;42.80;20.40;;;2.90;99.90;;;;;;5042485;28;20251;-69
2022/01/13 09:53:38;;;;;;;43.20;20.27;;;3.00;99.90;;;;;;5052845;28;20224;-67
2022/01/13 09:56:29;;;;;;;51.07;21.00;;;3.10;99.90;;;;;;5059771;28;20612;-69
2022/01/13 09:59:17;;;;;;;47.67;20.27;;;3.10;99.90;;;;;;5055305;28;20215;-70
2022/01/13 10:02:06;;;;;;;43.80;20.20;;;3.10;99.90;;;;;;5043442;28;20223;-72
2022/01/13 10:04:55;;;;;;;50.33;20.40;;;3.10;99.90;;;;;;5052866;28;20227;-68
2022/01/13 10:07:46;;;;;;;44.23;20.63;;;3.10;99.90;;;;;;5036471;28;21014;-72
2022/01/13 10:10:44;;;;;;;46.83;20.40;;;3.10;99.90;;;;;;5055600;28;20241;-68
2022/01/13 10:13:50;;;;;;;45.77;19.63;;;3.00;99.90;;;;;;5060322;28;20224;-68
2022/01/13 10:16:48;;;;;;;39.87;18.47;;;3.00;99.90;;;;;;5055198;28;20231;-69
2022/01/13 10:19:38;;;;;;;42.40;19.23;;;3.00;99.90;;;;;;5051343;28;20216;-70
2022/01/13 10:22:33;;;;;;;42.37;19.30;;;3.10;99.90;;;;;;5037797;28;20600;-70
2022/01/13 10:25:34;;;;;;;41.00;18.70;;;3.10;99.90;;;;;;5052738;28;20531;-69
2022/01/13 10:28:24;;;;;;;44.53;19.70;;;3.20;99.90;;;;;;5046888;28;20227;-69
2022/01/13 10:31:14;;;;;;;49.30;20.50;;;3.20;99.90;;;;;;5055479;28;20238;-68
2022/01/13 10:34:17;;;;;;;43.23;19.47;;;3.20;99.90;;;;;;5050888;28;20239;-69
2022/01/13 10:37:11;;;;;;;48.27;20.60;;;3.20;99.90;;;;;;5052208;28;20233;-73
2022/01/13 10:40:03;;;;;;;45.60;19.70;;;3.20;99.90;;;;;;5052044;28;20223;-69
2022/01/13 10:43:10;;;;;;;49.97;20.10;;;3.20;99.90;;;;;;5050024;28;20745;-67
2022/01/13 10:45:59;;;;;;;44.43;19.70;;;3.20;99.90;;;;;;5041865;28;20217;-70
2022/01/13 10:49:08;;;;;;;48.20;20.30;;;3.30;99.90;;;;;;5043331;28;20314;-70
2022/01/13 10:52:17;;;;;;;57.13;21.30;;;3.30;99.90;;;;;;5039553;28;20223;-71
2022/01/13 10:55:09;;;;;;;46.43;19.50;;;3.30;99.90;;;;;;5049141;28;20279;-69
2022/01/13 10:58:24;;;;;;;47.97;21.13;;;3.40;99.90;;;;;;5042558;28;20227;-71
2022/01/13 11:01:14;;;;;;;48.20;20.03;;;3.40;99.90;;;;;;5027078;28;20831;-68
2022/01/13 11:04:15;;;;;;;52.27;20.40;;;3.40;99.90;;;;;;5042301;28;20816;-71
2022/01/13 11:07:19;;;;;;;43.63;19.13;;;3.30;99.90;;;;;;5055092;28;20313;-72
2022/01/13 11:10:09;;;;;;;46.53;19.23;;;3.40;99.90;;;;;;5054958;28;20216;-70
2022/01/13 11:13:00;;;;;;;47.43;21.53;;;3.40;99.90;;;;;;5042764;28;20866;-72
2022/01/13 11:15:53;;;;;;;47.40;20.03;;;3.50;99.90;;;;;;5056290;28;20590;-71
2022/01/13 11:18:42;;;;;;;48.73;19.93;;;3.50;99.90;;;;;;5055013;28;20220;-71
2022/01/13 11:21:33;;;;;;;47.03;19.97;;;3.50;99.90;;;;;;5054955;28;20228;-71
2022/01/13 11:24:22;;;;;;;49.33;20.53;;;3.50;99.90;;;;;;5058354;28;20221;-72
2022/01/13 11:27:12;;;;;;;43.47;18.57;;;3.40;99.90;;;;;;5054361;28;20221;-70
2022/01/13 11:30:01;;;;;;;43.40;18.43;;;3.40;99.90;;;;;;5058109;28;20214;-71
2022/01/13 11:32:51;;;;;;;37.60;18.30;;;3.50;99.90;;;;;;5038744;28;20232;-72
2022/01/13 11:35:45;;;;;;;37.83;17.93;;;3.40;99.90;;;;;;5060410;28;20675;-70
2022/01/13 11:38:35;;;;;;;36.97;17.30;;;3.40;99.90;;;;;;5057437;28;20234;-71
2022/01/13 11:41:24;;;;;;;36.60;16.87;;;3.50;99.90;;;;;;5051058;28;20294;-72
2022/01/13 11:44:13;;;;;;;43.30;17.93;;;3.50;99.90;;;;;;5053540;28;20241;-71
2022/01/13 11:47:08;;;;;;;41.30;17.43;;;3.50;99.90;;;;;;5056419;28;20213;-73
2022/01/13 11:50:15;;;;;;;32.17;15.87;;;3.60;99.90;;;;;;5051870;28;20223;-70
2022/01/13 11:53:28;;;;;;;35.20;17.27;;;3.60;99.90;;;;;;5042390;28;20255;-69
2022/01/13 11:56:19;;;;;;;37.23;17.73;;;3.70;99.90;;;;;;5053069;28;20238;-70
2022/01/13 11:59:09;;;;;;;40.40;17.07;;;3.70;99.90;;;;;;5048105;28;20232;-71
2022/01/13 12:02:23;;;;;;;39.67;17.07;;;3.70;99.90;;;;;;5056100;28;20268;-70
2022/01/13 12:05:16;;;;;;;36.33;16.17;;;3.70;99.90;;;;;;5054401;28;20232;-73
2022/01/13 12:08:05;;;;;;;32.20;15.37;;;3.60;99.90;;;;;;5043923;28;20217;-72
2022/01/13 12:10:54;;;;;;;32.77;16.40;;;3.60;99.90;;;;;;5038537;28;20214;-73
2022/01/13 12:13:46;;;;;;;34.80;16.60;;;3.60;99.90;;;;;;5053715;28;20231;-73
2022/01/13 12:16:56;;;;;;;33.03;16.47;;;3.50;99.90;;;;;;5051309;28;20259;-72
2022/01/13 12:19:49;;;;;;;33.93;15.07;;;3.60;99.90;;;;;;5045991;28;20243;-72
2022/01/13 12:22:43;;;;;;;36.57;16.43;;;3.60;99.90;;;;;;5038106;28;20244;-72
2022/01/13 12:25:33;;;;;;;34.43;16.57;;;3.60;99.90;;;;;;5051595;28;20260;-73
2022/01/13 12:28:22;;;;;;;36.57;16.47;;;3.60;99.90;;;;;;5055403;28;20534;-73
2022/01/13 12:31:29;;;;;;;37.53;16.20;;;3.70;99.90;;;;;;5056635;28;20229;-72
2022/01/13 12:34:23;;;;;;;35.83;16.37;;;3.60;99.90;;;;;;5044312;28;20225;-70
2022/01/13 12:37:27;;;;;;;31.53;15.03;;;3.70;99.90;;;;;;5060413;28;20897;-72
2022/01/13 12:40:18;;;;;;;34.93;15.17;;;3.70;99.90;;;;;;5055144;28;20670;-71
2022/01/13 12:43:33;;;;;;;37.03;16.57;;;3.70;99.90;;;;;;5059302;28;20963;-71
2022/01/13 12:46:24;;;;;;;29.73;14.53;;;3.70;99.90;;;;;;5044423;28;20541;-72
2022/01/13 12:49:18;;;;;;;35.67;17.83;;;3.70;99.90;;;;;;5055835;28;20267;-71
2022/01/13 12:52:08;;;;;;;36.10;16.43;;;3.80;99.90;;;;;;5053134;28;20673;-72
2022/01/13 12:54:57;;;;;;;36.40;15.27;;;3.70;99.90;;;;;;5043607;28;20226;-70
2022/01/13 12:57:48;;;;;;;32.23;14.10;;;3.80;99.90;;;;;;5052286;28;20218;-71
2022/01/13 13:00:38;;;;;;;34.63;15.80;;;3.80;99.90;;;;;;5040708;28;20227;-71
2022/01/13 13:03:26;;;;;;;39.20;19.00;;;3.80;99.90;;;;;;5038964;28;20313;-71
2022/01/13 13:06:17;;;;;;;29.00;14.97;;;3.80;99.90;;;;;;5053701;28;20319;-71
2022/01/13 13:09:07;;;;;;;31.70;14.70;;;3.90;99.90;;;;;;5059674;28;20268;-71
2022/01/13 13:12:00;;;;;;;27.60;14.03;;;3.90;99.90;;;;;;5055938;28;20643;-70
2022/01/13 13:17:55;;;;;;;35.00;15.53;;;3.80;99.90;;;;;;5044922;28;20221;-70
2022/01/13 13:20:44;;;;;;;26.97;14.60;;;3.90;99.90;;;;;;5042600;28;20232;-70
2022/01/13 13:23:37;;;;;;;34.43;15.03;;;3.90;99.90;;;;;;5058050;28;20741;-70
2022/01/13 13:26:25;;;;;;;32.17;15.73;;;3.80;99.90;;;;;;5051032;28;20241;-69
2022/01/13 13:29:22;;;;;;;34.53;16.03;;;3.90;99.90;;;;;;5046552;28;20222;-71
2022/01/13 13:32:11;;;;;;;28.47;14.47;;;3.90;99.90;;;;;;5033311;28;20222;-74
2022/01/13 13:35:00;;;;;;;41.57;20.90;;;3.80;99.90;;;;;;5046309;28;20245;-70
2022/01/13 13:37:49;;;;;;;32.73;14.47;;;3.80;99.90;;;;;;5045328;28;20225;-71
2022/01/13 13:40:47;;;;;;;31.07;15.37;;;3.90;99.90;;;;;;5047551;28;20226;-72
2022/01/13 13:43:35;;;;;;;35.47;15.17;;;3.90;99.90;;;;;;5042224;28;20224;-74
2022/01/13 13:46:25;;;;;;;32.20;14.77;;;3.90;99.90;;;;;;5028379;28;20697;-70
2022/01/13 13:49:14;;;;;;;26.90;12.37;;;3.90;99.90;;;;;;5041754;28;20226;-70
2022/01/13 13:52:06;;;;;;;33.77;15.53;;;3.90;99.90;;;;;;5037541;28;20259;-70
2022/01/13 13:54:54;;;;;;;28.70;14.50;;;3.90;99.90;;;;;;5034224;28;20222;-71
2022/01/13 13:57:45;;;;;;;30.13;14.13;;;3.90;99.90;;;;;;5037042;28;20306;-71
2022/01/13 14:00:34;;;;;;;27.37;14.60;;;4.00;99.90;;;;;;5040815;28;20225;-73
2022/01/13 14:03:40;;;;;;;31.77;15.10;;;4.00;99.90;;;;;;5035472;28;20690;-72
2022/01/13 14:06:43;;;;;;;31.47;15.83;;;3.90;99.90;;;;;;5053656;28;20434;-71
2022/01/13 14:09:38;;;;;;;32.33;15.97;;;4.00;99.90;;;;;;5051920;28;20229;-72
2022/01/13 14:12:33;;;;;;;31.80;15.77;;;4.00;99.90;;;;;;5050193;28;20216;-70
2022/01/13 14:15:26;;;;;;;30.80;14.47;;;4.00;99.90;;;;;;5049010;28;20220;-72
2022/01/13 14:18:19;;;;;;;31.53;15.40;;;4.00;99.90;;;;;;5046947;28;20235;-71
2022/01/13 14:21:08;;;;;;;34.83;16.50;;;4.00;99.90;;;;;;5046258;28;20247;-69
2022/01/13 14:23:57;;;;;;;33.07;16.67;;;4.00;99.90;;;;;;5034500;28;20222;-71
2022/01/13 14:26:46;;;;;;;30.17;15.63;;;4.00;99.90;;;;;;5034497;28;20233;-70
2022/01/13 14:29:35;;;;;;;31.20;14.57;;;3.90;99.90;;;;;;5053504;28;20707;-73
2022/01/13 14:32:26;;;;;;;31.40;15.60;;;3.90;99.90;;;;;;5053125;28;20730;-70
2022/01/13 14:35:15;;;;;;;31.77;15.37;;;4.00;99.90;;;;;;5054024;28;20220;-74
2022/01/13 14:38:10;;;;;;;31.53;15.13;;;3.90;99.90;;;;;;5055143;28;20232;-75
2022/01/13 14:40:59;;;;;;;28.60;14.57;;;3.90;99.90;;;;;;5035054;28;20226;-73
2022/01/13 14:43:58;;;;;;;33.73;15.43;;;3.90;99.90;;;;;;5048048;28;20228;-73
2022/01/13 14:46:51;;;;;;;29.67;14.97;;;3.90;99.90;;;;;;5050154;28;20234;-71
2022/01/13 14:49:41;;;;;;;32.77;15.43;;;3.90;99.90;;;;;;5049523;28;20266;-73
2022/01/13 14:52:30;;;;;;;29.03;15.53;;;3.90;99.90;;;;;;5036521;28;20216;-74